sensor_id;sensor_type;location;lat;lon;timestamp;temperature;humidity
21353;DHT22;10834;52.268;6.770;2023-04-24T00:02:05;10.40;99.90
21353;DHT22;10834;52.268;6.770;2023-04-24T00:04:52;10.40;99.90
21353;DHT22;10834;52.268;6.770;2023-04-24T00:07:38;10.40;99.90
21353;DHT22;10834;52.268;6.770;2023-04-24T00:10:24;10.40;99.90
21353;DHT22;10834;52.268;6.770;2023-04-24T00:13:11;10.40;99.90
21353;DHT22;10834;52.268;6.770;2023-04-24T00:15:58;10.40;99.90
21353;DHT22;10834;52.268;6.770;2023-04-24T00:18:44;10.50;99.90
21353;DHT22;10834;52.268;6.770;2023-04-24T00:21:30;10.50;99.90
21353;DHT22;10834;52.268;6.770;2023-04-24T00:24:18;10.50;99.90
21353;DHT22;10834;52.268;6.770;2023-04-24T00:27:04;10.50;99.90
21353;DHT22;10834;52.268;6.770;2023-04-24T00:29:50;10.50;99.90
21353;DHT22;10834;52.268;6.770;2023-04-24T00:32:36;10.50;99.90
21353;DHT22;10834;52.268;6.770;2023-04-24T00:35:22;10.50;99.90
21353;DHT22;10834;52.268;6.770;2023-04-24T00:38:09;10.50;99.90
21353;DHT22;10834;52.268;6.770;2023-04-24T00:40:55;10.50;99.90
21353;DHT22;10834;52.268;6.770;2023-04-24T00:43:41;10.60;99.90
21353;DHT22;10834;52.268;6.770;2023-04-24T00:46:27;10.60;99.90
21353;DHT22;10834;52.268;6.770;2023-04-24T00:49:14;10.60;99.90
21353;DHT22;10834;52.268;6.770;2023-04-24T00:52:00;10.60;99.90
21353;DHT22;10834;52.268;6.770;2023-04-24T00:54:46;10.60;99.90
21353;DHT22;10834;52.268;6.770;2023-04-24T00:57:32;10.60;99.90
21353;DHT22;10834;52.268;6.770;2023-04-24T01:00:18;10.60;99.90
21353;DHT22;10834;52.268;6.770;2023-04-24T01:03:04;10.60;99.90
21353;DHT22;10834;52.268;6.770;2023-04-24T01:05:52;10.60;99.90
21353;DHT22;10834;52.268;6.770;2023-04-24T01:08:41;10.60;99.90
21353;DHT22;10834;52.268;6.770;2023-04-24T01:11:27;10.60;99.90
21353;DHT22;10834;52.268;6.770;2023-04-24T01:14:14;10.60;99.90
21353;DHT22;10834;52.268;6.770;2023-04-24T01:17:00;10.70;99.90
21353;DHT22;10834;52.268;6.770;2023-04-24T01:19:47;10.60;99.90
21353;DHT22;10834;52.268;6.770;2023-04-24T01:22:34;10.70;99.90
21353;DHT22;10834;52.268;6.770;2023-04-24T01:25:20;10.60;99.90
21353;DHT22;10834;52.268;6.770;2023-04-24T01:28:06;10.60;99.90
21353;DHT22;10834;52.268;6.770;2023-04-24T01:30:52;10.50;99.90
21353;DHT22;10834;52.268;6.770;2023-04-24T01:33:39;10.50;99.90
21353;DHT22;10834;52.268;6.770;2023-04-24T01:36:27;10.40;99.90
21353;DHT22;10834;52.268;6.770;2023-04-24T01:39:14;10.40;99.90
21353;DHT22;10834;52.268;6.770;2023-04-24T01:42:02;10.40;99.90
21353;DHT22;10834;52.268;6.770;2023-04-24T01:44:48;10.30;99.90
21353;DHT22;10834;52.268;6.770;2023-04-24T01:47:35;10.30;99.90
21353;DHT22;10834;52.268;6.770;2023-04-24T01:50:21;10.30;99.90
21353;DHT22;10834;52.268;6.770;2023-04-24T01:53:07;10.30;99.90
21353;DHT22;10834;52.268;6.770;2023-04-24T01:55:53;10.30;99.90
21353;DHT22;10834;52.268;6.770;2023-04-24T01:58:39;10.30;99.90
21353;DHT22;10834;52.268;6.770;2023-04-24T02:01:25;10.30;99.90
21353;DHT22;10834;52.268;6.770;2023-04-24T02:04:11;10.30;99.90
21353;DHT22;10834;52.268;6.770;2023-04-24T02:06:57;10.30;99.90
21353;DHT22;10834;52.268;6.770;2023-04-24T02:09:43;10.20;99.90
21353;DHT22;10834;52.268;6.770;2023-04-24T02:12:29;10.20;99.90
21353;DHT22;10834;52.268;6.770;2023-04-24T02:15:15;10.20;99.90
21353;DHT22;10834;52.268;6.770;2023-04-24T02:18:02;10.20;99.90
21353;DHT22;10834;52.268;6.770;2023-04-24T02:20:48;10.20;99.90
21353;DHT22;10834;52.268;6.770;2023-04-24T02:23:34;10.10;99.90
21353;DHT22;10834;52.268;6.770;2023-04-24T02:26:20;10.10;99.90
21353;DHT22;10834;52.268;6.770;2023-04-24T02:29:06;10.20;99.90
21353;DHT22;10834;52.268;6.770;2023-04-24T02:31:52;10.20;99.90
21353;DHT22;10834;52.268;6.770;2023-04-24T02:34:39;10.20;99.90
21353;DHT22;10834;52.268;6.770;2023-04-24T02:37:25;10.10;99.90
21353;DHT22;10834;52.268;6.770;2023-04-24T02:40:11;10.20;99.90
21353;DHT22;10834;52.268;6.770;2023-04-24T02:42:57;10.20;99.90
21353;DHT22;10834;52.268;6.770;2023-04-24T02:45:43;10.20;99.90
21353;DHT22;10834;52.268;6.770;2023-04-24T02:48:29;10.20;99.90
21353;DHT22;10834;52.268;6.770;2023-04-24T02:51:15;10.10;99.90
21353;DHT22;10834;52.268;6.770;2023-04-24T02:54:01;10.10;99.90
21353;DHT22;10834;52.268;6.770;2023-04-24T02:56:47;10.10;99.90
21353;DHT22;10834;52.268;6.770;2023-04-24T02:59:33;10.10;99.90
21353;DHT22;10834;52.268;6.770;2023-04-24T03:02:19;10.10;99.90
21353;DHT22;10834;52.268;6.770;2023-04-24T03:05:06;10.10;99.90
21353;DHT22;10834;52.268;6.770;2023-04-24T03:07:53;10.10;99.90
21353;DHT22;10834;52.268;6.770;2023-04-24T03:10:39;10.10;99.90
21353;DHT22;10834;52.268;6.770;2023-04-24T03:13:25;10.10;99.90
21353;DHT22;10834;52.268;6.770;2023-04-24T03:16:11;10.10;99.90
21353;DHT22;10834;52.268;6.770;2023-04-24T03:18:57;10.10;99.90
21353;DHT22;10834;52.268;6.770;2023-04-24T03:21:44;10.00;99.90
21353;DHT22;10834;52.268;6.770;2023-04-24T03:24:30;10.00;99.90
21353;DHT22;10834;52.268;6.770;2023-04-24T03:27:16;10.00;99.90
21353;DHT22;10834;52.268;6.770;2023-04-24T03:30:02;9.90;99.90
21353;DHT22;10834;52.268;6.770;2023-04-24T03:32:48;9.90;99.90
21353;DHT22;10834;52.268;6.770;2023-04-24T03:35:34;9.80;99.90
21353;DHT22;10834;52.268;6.770;2023-04-24T03:38:20;9.80;99.90
21353;DHT22;10834;52.268;6.770;2023-04-24T03:41:06;9.80;99.90
21353;DHT22;10834;52.268;6.770;2023-04-24T03:43:52;9.70;99.90
21353;DHT22;10834;52.268;6.770;2023-04-24T03:46:38;9.70;99.90
21353;DHT22;10834;52.268;6.770;2023-04-24T03:49:24;9.80;99.90
21353;DHT22;10834;52.268;6.770;2023-04-24T03:52:11;9.70;99.90
21353;DHT22;10834;52.268;6.770;2023-04-24T03:54:57;9.70;99.90
21353;DHT22;10834;52.268;6.770;2023-04-24T03:57:43;9.70;99.90
21353;DHT22;10834;52.268;6.770;2023-04-24T04:00:29;9.70;99.90
21353;DHT22;10834;52.268;6.770;2023-04-24T04:03:19;9.70;99.90
21353;DHT22;10834;52.268;6.770;2023-04-24T04:06:05;9.70;99.90
21353;DHT22;10834;52.268;6.770;2023-04-24T04:08:51;9.70;99.90
21353;DHT22;10834;52.268;6.770;2023-04-24T04:11:37;9.70;99.90
21353;DHT22;10834;52.268;6.770;2023-04-24T04:14:23;9.70;99.90
21353;DHT22;10834;52.268;6.770;2023-04-24T04:17:09;9.70;99.90
21353;DHT22;10834;52.268;6.770;2023-04-24T04:19:55;9.70;99.90
21353;DHT22;10834;52.268;6.770;2023-04-24T04:22:42;9.70;99.90
21353;DHT22;10834;52.268;6.770;2023-04-24T04:25:28;9.70;99.90
21353;DHT22;10834;52.268;6.770;2023-04-24T04:28:14;9.70;99.90
21353;DHT22;10834;52.268;6.770;2023-04-24T04:31:01;9.70;99.90
21353;DHT22;10834;52.268;6.770;2023-04-24T04:33:47;9.70;99.90
21353;DHT22;10834;52.268;6.770;2023-04-24T04:36:33;9.70;99.90
21353;DHT22;10834;52.268;6.770;2023-04-24T04:39:22;9.70;99.90
21353;DHT22;10834;52.268;6.770;2023-04-24T04:42:08;9.80;99.90
21353;DHT22;10834;52.268;6.770;2023-04-24T04:44:54;9.70;99.90
21353;DHT22;10834;52.268;6.770;2023-04-24T04:47:41;9.70;99.90
21353;DHT22;10834;52.268;6.770;2023-04-24T04:50:27;9.70;99.90
21353;DHT22;10834;52.268;6.770;2023-04-24T04:53:14;9.70;99.90
21353;DHT22;10834;52.268;6.770;2023-04-24T04:56:00;9.70;99.90
21353;DHT22;10834;52.268;6.770;2023-04-24T04:58:46;9.70;99.90
21353;DHT22;10834;52.268;6.770;2023-04-24T05:01:32;9.70;99.90
21353;DHT22;10834;52.268;6.770;2023-04-24T05:04:18;9.70;99.90
21353;DHT22;10834;52.268;6.770;2023-04-24T05:07:04;9.80;99.90
21353;DHT22;10834;52.268;6.770;2023-04-24T05:09:50;9.80;99.90
21353;DHT22;10834;52.268;6.770;2023-04-24T05:12:37;9.80;99.90
21353;DHT22;10834;52.268;6.770;2023-04-24T05:15:23;9.80;99.90
21353;DHT22;10834;52.268;6.770;2023-04-24T05:18:09;9.80;99.90
21353;DHT22;10834;52.268;6.770;2023-04-24T05:20:55;9.80;99.90
21353;DHT22;10834;52.268;6.770;2023-04-24T05:23:41;9.80;99.90
21353;DHT22;10834;52.268;6.770;2023-04-24T05:26:27;9.80;99.90
21353;DHT22;10834;52.268;6.770;2023-04-24T05:29:13;9.80;99.90
21353;DHT22;10834;52.268;6.770;2023-04-24T05:32:00;9.80;99.90
21353;DHT22;10834;52.268;6.770;2023-04-24T05:34:46;9.80;99.90
21353;DHT22;10834;52.268;6.770;2023-04-24T05:37:32;9.80;99.90
21353;DHT22;10834;52.268;6.770;2023-04-24T05:40:18;9.90;99.90
21353;DHT22;10834;52.268;6.770;2023-04-24T05:43:04;9.90;99.90
21353;DHT22;10834;52.268;6.770;2023-04-24T05:45:50;10.00;99.90
21353;DHT22;10834;52.268;6.770;2023-04-24T05:48:37;10.00;99.90
21353;DHT22;10834;52.268;6.770;2023-04-24T05:51:23;10.00;99.90
21353;DHT22;10834;52.268;6.770;2023-04-24T05:54:10;10.10;99.90
21353;DHT22;10834;52.268;6.770;2023-04-24T05:56:57;10.10;99.90
21353;DHT22;10834;52.268;6.770;2023-04-24T05:59:44;10.10;99.90
21353;DHT22;10834;52.268;6.770;2023-04-24T06:02:30;10.10;99.90
21353;DHT22;10834;52.268;6.770;2023-04-24T06:05:18;10.20;99.90
21353;DHT22;10834;52.268;6.770;2023-04-24T06:08:04;10.20;99.90
21353;DHT22;10834;52.268;6.770;2023-04-24T06:10:50;10.20;99.90
21353;DHT22;10834;52.268;6.770;2023-04-24T06:13:36;10.20;99.90
21353;DHT22;10834;52.268;6.770;2023-04-24T06:16:22;10.10;99.90
21353;DHT22;10834;52.268;6.770;2023-04-24T06:19:08;10.10;99.90
21353;DHT22;10834;52.268;6.770;2023-04-24T06:21:54;10.20;99.90
21353;DHT22;10834;52.268;6.770;2023-04-24T06:24:40;10.20;99.90
21353;DHT22;10834;52.268;6.770;2023-04-24T06:27:26;10.20;99.90
21353;DHT22;10834;52.268;6.770;2023-04-24T06:30:12;10.20;99.90
21353;DHT22;10834;52.268;6.770;2023-04-24T06:32:59;10.20;99.90
21353;DHT22;10834;52.268;6.770;2023-04-24T06:35:45;10.20;99.90
21353;DHT22;10834;52.268;6.770;2023-04-24T06:38:31;10.20;99.90
21353;DHT22;10834;52.268;6.770;2023-04-24T06:41:17;10.20;99.90
21353;DHT22;10834;52.268;6.770;2023-04-24T06:44:03;10.10;99.90
21353;DHT22;10834;52.268;6.770;2023-04-24T06:46:49;10.10;99.90
21353;DHT22;10834;52.268;6.770;2023-04-24T06:49:36;10.00;99.90
21353;DHT22;10834;52.268;6.770;2023-04-24T06:52:23;9.90;99.90
21353;DHT22;10834;52.268;6.770;2023-04-24T06:55:09;9.90;99.90
21353;DHT22;10834;52.268;6.770;2023-04-24T06:57:56;9.90;99.90
21353;DHT22;10834;52.268;6.770;2023-04-24T07:00:42;9.80;99.90
21353;DHT22;10834;52.268;6.770;2023-04-24T07:03:28;9.70;99.90
21353;DHT22;10834;52.268;6.770;2023-04-24T07:06:14;9.70;99.90
21353;DHT22;10834;52.268;6.770;2023-04-24T07:09:02;9.60;99.90
21353;DHT22;10834;52.268;6.770;2023-04-24T07:11:49;9.60;99.90
21353;DHT22;10834;52.268;6.770;2023-04-24T07:14:39;9.60;99.90
21353;DHT22;10834;52.268;6.770;2023-04-24T07:17:25;9.60;99.90
21353;DHT22;10834;52.268;6.770;2023-04-24T07:20:11;9.60;99.90
21353;DHT22;10834;52.268;6.770;2023-04-24T07:22:57;9.60;99.90
21353;DHT22;10834;52.268;6.770;2023-04-24T07:25:43;9.60;99.90
21353;DHT22;10834;52.268;6.770;2023-04-24T07:28:30;9.60;99.90
21353;DHT22;10834;52.268;6.770;2023-04-24T07:31:16;9.60;99.90
21353;DHT22;10834;52.268;6.770;2023-04-24T07:34:03;9.70;99.90
21353;DHT22;10834;52.268;6.770;2023-04-24T07:36:49;9.70;99.90
21353;DHT22;10834;52.268;6.770;2023-04-24T07:39:35;9.70;99.90
21353;DHT22;10834;52.268;6.770;2023-04-24T07:42:21;9.80;99.90
21353;DHT22;10834;52.268;6.770;2023-04-24T07:45:07;9.80;99.90
21353;DHT22;10834;52.268;6.770;2023-04-24T07:47:53;9.80;99.90
21353;DHT22;10834;52.268;6.770;2023-04-24T07:50:39;9.80;99.90
21353;DHT22;10834;52.268;6.770;2023-04-24T07:53:25;9.80;99.90
21353;DHT22;10834;52.268;6.770;2023-04-24T07:56:11;9.80;99.90
21353;DHT22;10834;52.268;6.770;2023-04-24T07:58:57;9.80;99.90
21353;DHT22;10834;52.268;6.770;2023-04-24T08:01:43;9.80;99.90
21353;DHT22;10834;52.268;6.770;2023-04-24T08:04:29;9.90;99.90
21353;DHT22;10834;52.268;6.770;2023-04-24T08:07:15;9.90;99.90
21353;DHT22;10834;52.268;6.770;2023-04-24T08:10:02;9.90;99.90
21353;DHT22;10834;52.268;6.770;2023-04-24T08:12:49;9.90;99.90
21353;DHT22;10834;52.268;6.770;2023-04-24T08:15:35;9.90;99.90
21353;DHT22;10834;52.268;6.770;2023-04-24T08:18:21;10.00;99.90
21353;DHT22;10834;52.268;6.770;2023-04-24T08:21:07;10.10;99.90
21353;DHT22;10834;52.268;6.770;2023-04-24T08:23:53;10.20;99.90
21353;DHT22;10834;52.268;6.770;2023-04-24T08:26:39;10.30;99.90
21353;DHT22;10834;52.268;6.770;2023-04-24T08:29:26;10.30;99.90
21353;DHT22;10834;52.268;6.770;2023-04-24T08:32:12;10.40;99.90
21353;DHT22;10834;52.268;6.770;2023-04-24T08:34:59;10.40;99.90
21353;DHT22;10834;52.268;6.770;2023-04-24T08:37:45;10.40;99.90
21353;DHT22;10834;52.268;6.770;2023-04-24T08:40:34;10.40;99.90
21353;DHT22;10834;52.268;6.770;2023-04-24T08:43:22;10.40;99.90
21353;DHT22;10834;52.268;6.770;2023-04-24T08:46:09;10.40;99.90
21353;DHT22;10834;52.268;6.770;2023-04-24T08:48:56;10.50;99.90
21353;DHT22;10834;52.268;6.770;2023-04-24T08:51:44;10.50;99.90
21353;DHT22;10834;52.268;6.770;2023-04-24T08:54:31;10.50;99.90
21353;DHT22;10834;52.268;6.770;2023-04-24T08:57:18;10.50;99.90
21353;DHT22;10834;52.268;6.770;2023-04-24T09:00:05;10.50;99.90
21353;DHT22;10834;52.268;6.770;2023-04-24T09:02:53;10.40;99.90
21353;DHT22;10834;52.268;6.770;2023-04-24T09:05:39;10.40;99.90
21353;DHT22;10834;52.268;6.770;2023-04-24T09:08:31;10.30;99.90
21353;DHT22;10834;52.268;6.770;2023-04-24T09:11:18;10.30;99.90
21353;DHT22;10834;52.268;6.770;2023-04-24T09:14:05;10.30;99.90
21353;DHT22;10834;52.268;6.770;2023-04-24T09:16:52;10.30;99.90
21353;DHT22;10834;52.268;6.770;2023-04-24T09:19:38;10.30;99.90
21353;DHT22;10834;52.268;6.770;2023-04-24T09:22:24;10.30;99.90
21353;DHT22;10834;52.268;6.770;2023-04-24T09:25:10;10.30;99.90
21353;DHT22;10834;52.268;6.770;2023-04-24T09:28:01;10.30;99.90
21353;DHT22;10834;52.268;6.770;2023-04-24T09:31:14;10.30;99.90
21353;DHT22;10834;52.268;6.770;2023-04-24T09:34:03;10.20;99.90
21353;DHT22;10834;52.268;6.770;2023-04-24T09:36:53;10.10;99.90
21353;DHT22;10834;52.268;6.770;2023-04-24T09:39:39;10.10;99.90
21353;DHT22;10834;52.268;6.770;2023-04-24T09:42:29;10.10;99.90
21353;DHT22;10834;52.268;6.770;2023-04-24T09:45:16;10.10;99.90
21353;DHT22;10834;52.268;6.770;2023-04-24T09:48:02;10.10;99.90
21353;DHT22;10834;52.268;6.770;2023-04-24T09:50:52;10.10;99.90
21353;DHT22;10834;52.268;6.770;2023-04-24T09:53:38;10.20;99.90
21353;DHT22;10834;52.268;6.770;2023-04-24T09:56:27;10.20;99.90
21353;DHT22;10834;52.268;6.770;2023-04-24T09:59:16;10.20;99.90
21353;DHT22;10834;52.268;6.770;2023-04-24T10:02:03;10.30;99.90
21353;DHT22;10834;52.268;6.770;2023-04-24T10:04:56;10.30;99.90
21353;DHT22;10834;52.268;6.770;2023-04-24T10:07:43;10.30;99.90
21353;DHT22;10834;52.268;6.770;2023-04-24T10:10:30;10.40;99.90
21353;DHT22;10834;52.268;6.770;2023-04-24T10:13:17;10.50;99.90
21353;DHT22;10834;52.268;6.770;2023-04-24T10:16:03;10.60;99.90
21353;DHT22;10834;52.268;6.770;2023-04-24T10:18:50;10.70;99.90
21353;DHT22;10834;52.268;6.770;2023-04-24T10:21:36;10.70;99.90
21353;DHT22;10834;52.268;6.770;2023-04-24T10:24:29;10.70;99.90
21353;DHT22;10834;52.268;6.770;2023-04-24T10:27:16;10.70;99.90
21353;DHT22;10834;52.268;6.770;2023-04-24T10:30:03;10.80;99.90
21353;DHT22;10834;52.268;6.770;2023-04-24T10:32:49;10.70;99.90
21353;DHT22;10834;52.268;6.770;2023-04-24T10:35:40;10.60;99.90
21353;DHT22;10834;52.268;6.770;2023-04-24T10:38:29;10.60;99.90
21353;DHT22;10834;52.268;6.770;2023-04-24T10:41:18;10.40;99.90
21353;DHT22;10834;52.268;6.770;2023-04-24T10:44:13;10.30;99.90
21353;DHT22;10834;52.268;6.770;2023-04-24T10:46:59;10.30;99.90
21353;DHT22;10834;52.268;6.770;2023-04-24T10:49:45;10.30;99.90
21353;DHT22;10834;52.268;6.770;2023-04-24T10:52:48;10.40;99.90
21353;DHT22;10834;52.268;6.770;2023-04-24T10:55:50;10.50;99.90
21353;DHT22;10834;52.268;6.770;2023-04-24T10:58:45;10.50;99.90
21353;DHT22;10834;52.268;6.770;2023-04-24T11:01:38;10.60;99.90
21353;DHT22;10834;52.268;6.770;2023-04-24T11:04:33;10.70;99.90
21353;DHT22;10834;52.268;6.770;2023-04-24T11:07:20;10.90;99.90
21353;DHT22;10834;52.268;6.770;2023-04-24T11:10:07;11.10;99.90
21353;DHT22;10834;52.268;6.770;2023-04-24T11:12:53;11.40;99.90
21353;DHT22;10834;52.268;6.770;2023-04-24T11:15:41;11.60;99.90
21353;DHT22;10834;52.268;6.770;2023-04-24T11:18:37;11.70;99.90
21353;DHT22;10834;52.268;6.770;2023-04-24T11:21:23;11.60;99.90
21353;DHT22;10834;52.268;6.770;2023-04-24T11:24:31;11.60;99.90
21353;DHT22;10834;52.268;6.770;2023-04-24T11:27:19;11.30;99.90
21353;DHT22;10834;52.268;6.770;2023-04-24T11:30:06;11.00;99.90
21353;DHT22;10834;52.268;6.770;2023-04-24T11:32:52;10.80;99.90
21353;DHT22;10834;52.268;6.770;2023-04-24T11:35:42;10.80;99.90
21353;DHT22;10834;52.268;6.770;2023-04-24T11:38:28;10.80;99.90
21353;DHT22;10834;52.268;6.770;2023-04-24T11:41:15;11.00;99.90
21353;DHT22;10834;52.268;6.770;2023-04-24T11:44:01;11.20;99.90
21353;DHT22;10834;52.268;6.770;2023-04-24T11:46:48;11.10;99.90
21353;DHT22;10834;52.268;6.770;2023-04-24T11:49:37;11.00;99.90
21353;DHT22;10834;52.268;6.770;2023-04-24T11:52:23;10.90;99.90
21353;DHT22;10834;52.268;6.770;2023-04-24T11:55:29;10.90;99.90
21353;DHT22;10834;52.268;6.770;2023-04-24T11:58:20;11.00;99.90
21353;DHT22;10834;52.268;6.770;2023-04-24T12:01:08;11.10;99.90
21353;DHT22;10834;52.268;6.770;2023-04-24T12:03:59;11.20;99.90
21353;DHT22;10834;52.268;6.770;2023-04-24T12:07:04;11.30;99.90
21353;DHT22;10834;52.268;6.770;2023-04-24T12:09:58;11.50;99.90
21353;DHT22;10834;52.268;6.770;2023-04-24T12:12:45;11.70;99.90
21353;DHT22;10834;52.268;6.770;2023-04-24T12:15:32;11.70;99.90
21353;DHT22;10834;52.268;6.770;2023-04-24T12:18:18;11.70;99.90
21353;DHT22;10834;52.268;6.770;2023-04-24T12:21:20;11.60;99.90
21353;DHT22;10834;52.268;6.770;2023-04-24T12:24:07;11.40;99.90
21353;DHT22;10834;52.268;6.770;2023-04-24T12:26:53;11.30;99.90
21353;DHT22;10834;52.268;6.770;2023-04-24T12:29:56;11.40;99.90
21353;DHT22;10834;52.268;6.770;2023-04-24T12:32:45;11.40;99.90
21353;DHT22;10834;52.268;6.770;2023-04-24T12:35:33;11.20;99.90
21353;DHT22;10834;52.268;6.770;2023-04-24T12:38:23;11.10;99.90
21353;DHT22;10834;52.268;6.770;2023-04-24T12:41:13;11.20;99.90
21353;DHT22;10834;52.268;6.770;2023-04-24T12:43:59;11.30;99.90
21353;DHT22;10834;52.268;6.770;2023-04-24T12:46:45;11.70;99.90
21353;DHT22;10834;52.268;6.770;2023-04-24T12:49:31;12.20;99.90
21353;DHT22;10834;52.268;6.770;2023-04-24T12:52:24;12.80;99.90
21353;DHT22;10834;52.268;6.770;2023-04-24T12:55:11;13.20;99.90
21353;DHT22;10834;52.268;6.770;2023-04-24T12:58:00;13.20;99.90
21353;DHT22;10834;52.268;6.770;2023-04-24T13:00:48;12.90;99.90
21353;DHT22;10834;52.268;6.770;2023-04-24T13:03:34;12.50;99.90
21353;DHT22;10834;52.268;6.770;2023-04-24T13:06:20;12.00;99.90
21353;DHT22;10834;52.268;6.770;2023-04-24T13:09:06;11.70;99.90
21353;DHT22;10834;52.268;6.770;2023-04-24T13:11:54;11.40;99.90
21353;DHT22;10834;52.268;6.770;2023-04-24T13:14:40;11.20;99.90
21353;DHT22;10834;52.268;6.770;2023-04-24T13:17:26;11.00;99.90
21353;DHT22;10834;52.268;6.770;2023-04-24T13:20:12;11.00;99.90
21353;DHT22;10834;52.268;6.770;2023-04-24T13:22:58;11.10;99.90
21353;DHT22;10834;52.268;6.770;2023-04-24T13:25:45;11.40;99.90
21353;DHT22;10834;52.268;6.770;2023-04-24T13:28:33;11.60;99.90
21353;DHT22;10834;52.268;6.770;2023-04-24T13:31:19;11.60;99.90
21353;DHT22;10834;52.268;6.770;2023-04-24T13:34:05;11.40;99.90
21353;DHT22;10834;52.268;6.770;2023-04-24T13:36:53;11.20;99.90
21353;DHT22;10834;52.268;6.770;2023-04-24T13:39:40;11.00;99.90
21353;DHT22;10834;52.268;6.770;2023-04-24T13:42:27;10.80;99.90
21353;DHT22;10834;52.268;6.770;2023-04-24T13:45:13;10.50;99.90
21353;DHT22;10834;52.268;6.770;2023-04-24T13:47:59;10.40;99.90
21353;DHT22;10834;52.268;6.770;2023-04-24T13:50:47;10.30;99.90
21353;DHT22;10834;52.268;6.770;2023-04-24T13:53:36;10.30;99.90
21353;DHT22;10834;52.268;6.770;2023-04-24T13:56:24;10.50;99.90
21353;DHT22;10834;52.268;6.770;2023-04-24T13:59:12;11.00;99.90
21353;DHT22;10834;52.268;6.770;2023-04-24T14:01:58;11.80;99.90
21353;DHT22;10834;52.268;6.770;2023-04-24T14:04:44;12.30;99.90
21353;DHT22;10834;52.268;6.770;2023-04-24T14:07:30;12.40;99.90
21353;DHT22;10834;52.268;6.770;2023-04-24T14:10:17;12.30;99.90
21353;DHT22;10834;52.268;6.770;2023-04-24T14:13:03;12.30;99.90
21353;DHT22;10834;52.268;6.770;2023-04-24T14:15:49;12.20;99.90
21353;DHT22;10834;52.268;6.770;2023-04-24T14:18:35;12.30;99.90
21353;DHT22;10834;52.268;6.770;2023-04-24T14:21:22;12.30;99.90
21353;DHT22;10834;52.268;6.770;2023-04-24T14:24:08;12.50;99.90
21353;DHT22;10834;52.268;6.770;2023-04-24T14:26:54;12.80;99.90
21353;DHT22;10834;52.268;6.770;2023-04-24T14:29:42;12.80;99.90
21353;DHT22;10834;52.268;6.770;2023-04-24T14:32:28;13.00;99.90
21353;DHT22;10834;52.268;6.770;2023-04-24T14:35:14;13.00;99.90
21353;DHT22;10834;52.268;6.770;2023-04-24T14:38:00;12.80;99.90
21353;DHT22;10834;52.268;6.770;2023-04-24T14:40:46;12.70;99.90
21353;DHT22;10834;52.268;6.770;2023-04-24T14:43:32;12.70;99.90
21353;DHT22;10834;52.268;6.770;2023-04-24T14:46:19;12.50;99.90
21353;DHT22;10834;52.268;6.770;2023-04-24T14:49:06;12.10;99.90
21353;DHT22;10834;52.268;6.770;2023-04-24T14:51:55;11.70;99.90
21353;DHT22;10834;52.268;6.770;2023-04-24T14:54:41;11.20;99.90
21353;DHT22;10834;52.268;6.770;2023-04-24T14:57:28;10.90;99.90
21353;DHT22;10834;52.268;6.770;2023-04-24T15:00:14;10.60;99.90
21353;DHT22;10834;52.268;6.770;2023-04-24T15:03:02;10.50;99.90
21353;DHT22;10834;52.268;6.770;2023-04-24T15:05:49;10.40;99.90
21353;DHT22;10834;52.268;6.770;2023-04-24T15:08:36;10.40;99.90
21353;DHT22;10834;52.268;6.770;2023-04-24T15:11:22;10.50;99.90
21353;DHT22;10834;52.268;6.770;2023-04-24T15:14:08;10.60;99.90
21353;DHT22;10834;52.268;6.770;2023-04-24T15:16:54;10.80;99.90
21353;DHT22;10834;52.268;6.770;2023-04-24T15:19:40;10.80;99.90
21353;DHT22;10834;52.268;6.770;2023-04-24T15:22:26;10.90;99.90
21353;DHT22;10834;52.268;6.770;2023-04-24T15:25:12;11.00;99.90
21353;DHT22;10834;52.268;6.770;2023-04-24T15:27:59;11.20;99.90
21353;DHT22;10834;52.268;6.770;2023-04-24T15:30:45;11.40;99.90
21353;DHT22;10834;52.268;6.770;2023-04-24T15:33:31;11.60;99.90
21353;DHT22;10834;52.268;6.770;2023-04-24T15:36:18;11.70;99.90
21353;DHT22;10834;52.268;6.770;2023-04-24T15:39:04;11.60;99.90
21353;DHT22;10834;52.268;6.770;2023-04-24T15:41:50;11.40;99.90
21353;DHT22;10834;52.268;6.770;2023-04-24T15:44:36;11.40;99.90
21353;DHT22;10834;52.268;6.770;2023-04-24T15:47:23;11.40;99.90
21353;DHT22;10834;52.268;6.770;2023-04-24T15:50:10;11.50;99.90
21353;DHT22;10834;52.268;6.770;2023-04-24T15:52:56;11.50;99.90
21353;DHT22;10834;52.268;6.770;2023-04-24T15:55:42;11.60;99.90
21353;DHT22;10834;52.268;6.770;2023-04-24T15:58:28;11.50;99.90
21353;DHT22;10834;52.268;6.770;2023-04-24T16:01:14;11.40;99.90
21353;DHT22;10834;52.268;6.770;2023-04-24T16:04:00;11.30;99.90
21353;DHT22;10834;52.268;6.770;2023-04-24T16:06:46;11.10;99.90
21353;DHT22;10834;52.268;6.770;2023-04-24T16:09:33;11.00;99.90
21353;DHT22;10834;52.268;6.770;2023-04-24T16:12:19;10.80;99.90
21353;DHT22;10834;52.268;6.770;2023-04-24T16:15:05;10.80;99.90
21353;DHT22;10834;52.268;6.770;2023-04-24T16:17:51;10.80;99.90
21353;DHT22;10834;52.268;6.770;2023-04-24T16:20:38;10.90;99.90
21353;DHT22;10834;52.268;6.770;2023-04-24T16:23:24;10.90;99.90
21353;DHT22;10834;52.268;6.770;2023-04-24T16:26:10;10.80;99.90
21353;DHT22;10834;52.268;6.770;2023-04-24T16:28:56;10.70;99.90
21353;DHT22;10834;52.268;6.770;2023-04-24T16:31:42;10.70;99.90
21353;DHT22;10834;52.268;6.770;2023-04-24T16:34:28;10.70;99.90
21353;DHT22;10834;52.268;6.770;2023-04-24T16:37:14;10.60;99.90
21353;DHT22;10834;52.268;6.770;2023-04-24T16:40:00;10.50;99.90
21353;DHT22;10834;52.268;6.770;2023-04-24T16:42:46;10.40;99.90
21353;DHT22;10834;52.268;6.770;2023-04-24T16:45:33;10.50;99.90
21353;DHT22;10834;52.268;6.770;2023-04-24T16:48:20;10.50;99.90
21353;DHT22;10834;52.268;6.770;2023-04-24T16:51:06;10.60;99.90
21353;DHT22;10834;52.268;6.770;2023-04-24T16:53:52;10.70;99.90
21353;DHT22;10834;52.268;6.770;2023-04-24T16:56:38;10.60;99.90
21353;DHT22;10834;52.268;6.770;2023-04-24T16:59:24;10.50;99.90
21353;DHT22;10834;52.268;6.770;2023-04-24T17:02:10;10.50;99.90
21353;DHT22;10834;52.268;6.770;2023-04-24T17:04:56;10.50;99.90
21353;DHT22;10834;52.268;6.770;2023-04-24T17:07:42;10.60;99.90
21353;DHT22;10834;52.268;6.770;2023-04-24T17:10:28;10.60;99.90
21353;DHT22;10834;52.268;6.770;2023-04-24T17:13:15;10.50;99.90
21353;DHT22;10834;52.268;6.770;2023-04-24T17:16:01;10.50;99.90
21353;DHT22;10834;52.268;6.770;2023-04-24T17:18:47;10.50;99.90
21353;DHT22;10834;52.268;6.770;2023-04-24T17:21:33;10.40;99.90
21353;DHT22;10834;52.268;6.770;2023-04-24T17:24:19;10.40;99.90
21353;DHT22;10834;52.268;6.770;2023-04-24T17:27:05;10.40;99.90
21353;DHT22;10834;52.268;6.770;2023-04-24T17:29:52;10.40;99.90
21353;DHT22;10834;52.268;6.770;2023-04-24T17:32:38;10.40;99.90
21353;DHT22;10834;52.268;6.770;2023-04-24T17:35:24;10.20;99.90
21353;DHT22;10834;52.268;6.770;2023-04-24T17:38:10;10.10;99.90
21353;DHT22;10834;52.268;6.770;2023-04-24T17:40:56;10.00;99.90